Time;durP1;ratioP1;P1;durP2;ratioP2;P2;SDS_P1;SDS_P2;PMS_P1;PMS_P2;Temp;Humidity;BMP_temperature;BMP_pressure;BME280_temperature;BME280_humidity;BME280_pressure;Samples;Min_cycle;Max_cycle;Signal;HPM_P1;HPM_P2
2021/06/28 01:42:08;;;;;;;;;7.25;6.50;;;;;;;;3526237;39;1431759;-78
2021/06/28 01:44:35;;;;;;;;;7.00;7.00;;;;;;;;3501463;39;113094;-83
2021/06/28 01:47:02;;;;;;;;;6.00;6.00;;;;;;;;3520456;39;112085;-80
2021/06/28 01:49:28;;;;;;;;;7.25;6.00;;;;;;;;3533925;39;113560;-81
2021/06/28 01:51:55;;;;;;;;;6.25;5.00;;;;;;;;3527029;39;114157;-80
2021/06/28 01:54:22;;;;;;;;;5.75;5.75;;;;;;;;3526362;39;112259;-80
2021/06/28 01:56:49;;;;;;;;;8.00;8.00;;;;;;;;3527406;39;113903;-79
2021/06/28 01:59:17;;;;;;;;;7.50;6.75;;;;;;;;3525716;39;113992;-80
2021/06/28 02:01:44;;;;;;;;;7.00;7.00;;;;;;;;3530424;39;112333;-79
2021/06/28 02:04:17;;;;;;;;;9.25;7.50;;;;;;;;3525420;39;113931;-80
2021/06/28 02:06:43;;;;;;;;;6.50;5.00;;;;;;;;3525778;39;112528;-80
2021/06/28 02:09:10;;;;;;;;;6.75;6.00;;;;;;;;3526096;39;113435;-80
2021/06/28 02:11:37;;;;;;;;;6.50;5.00;;;;;;;;3526958;39;114106;-81
2021/06/28 02:14:03;;;;;;;;;7.75;7.00;;;;;;;;3526304;39;113075;-81
2021/06/28 02:16:32;;;;;;;;;6.25;6.25;;;;;;;;3526766;39;113307;-81
2021/06/28 02:18:58;;;;;;;;;6.00;6.00;;;;;;;;3525888;39;113839;-79
2021/06/28 02:21:25;;;;;;;;;6.25;5.00;;;;;;;;3526642;39;112024;-80
2021/06/28 02:23:52;;;;;;;;;6.00;6.00;;;;;;;;3529149;39;113512;-81
2021/06/28 02:26:18;;;;;;;;;5.50;5.50;;;;;;;;3526104;39;112070;-80
2021/06/28 02:28:47;;;;;;;;;7.75;6.50;;;;;;;;3527674;39;113677;-79
2021/06/28 02:31:15;;;;;;;;;6.00;6.00;;;;;;;;3525404;39;113961;-79
2021/06/28 02:33:43;;;;;;;;;8.00;8.00;;;;;;;;3525717;39;112103;-79
2021/06/28 02:36:10;;;;;;;;;6.00;6.00;;;;;;;;3527387;39;113265;-79
2021/06/28 02:38:37;;;;;;;;;6.00;6.00;;;;;;;;3525455;39;113853;-79
2021/06/28 02:41:07;;;;;;;;;7.00;6.00;;;;;;;;3526775;39;113504;-79
2021/06/28 02:43:34;;;;;;;;;6.00;6.00;;;;;;;;3526084;39;113427;-79
2021/06/28 02:46:01;;;;;;;;;6.00;6.00;;;;;;;;3528739;39;113870;-79
2021/06/28 02:48:28;;;;;;;;;6.00;6.00;;;;;;;;3526445;39;113298;-79
2021/06/28 02:50:56;;;;;;;;;7.25;7.25;;;;;;;;3525147;39;114713;-81
2021/06/28 02:53:23;;;;;;;;;7.75;7.00;;;;;;;;3519894;39;111849;-80
2021/06/28 02:55:50;;;;;;;;;6.00;6.00;;;;;;;;3520278;39;113210;-79
2021/06/28 02:58:17;;;;;;;;;7.00;7.00;;;;;;;;3518960;39;113420;-80
2021/06/28 03:00:44;;;;;;;;;7.00;6.50;;;;;;;;3518650;39;111760;-80
2021/06/28 03:03:11;;;;;;;;;7.50;6.75;;;;;;;;3519241;39;113006;-80
2021/06/28 03:05:38;;;;;;;;;7.00;7.00;;;;;;;;3519982;39;114032;-80
2021/06/28 03:08:07;;;;;;;;;7.00;7.00;;;;;;;;3521756;39;113321;-80
2021/06/28 03:10:34;;;;;;;;;7.25;6.25;;;;;;;;3520016;39;113785;-80
2021/06/28 03:13:01;;;;;;;;;9.00;8.00;;;;;;;;3519308;39;112082;-82
2021/06/28 03:15:27;;;;;;;;;6.00;6.00;;;;;;;;3519840;39;113671;-82
2021/06/28 03:17:54;;;;;;;;;5.50;5.50;;;;;;;;3519647;39;113931;-83
2021/06/28 03:20:20;;;;;;;;;7.25;7.00;;;;;;;;3519334;39;112071;-82
2021/06/28 03:22:47;;;;;;;;;6.00;6.00;;;;;;;;3520599;39;113256;-82
2021/06/28 03:25:17;;;;;;;;;5.75;5.75;;;;;;;;3518712;39;114405;-82
2021/06/28 03:27:44;;;;;;;;;7.00;5.25;;;;;;;;3518952;39;111849;-82
2021/06/28 03:30:13;;;;;;;;;7.00;7.00;;;;;;;;3521304;39;113394;-83
2021/06/28 03:32:39;;;;;;;;;7.25;7.25;;;;;;;;3519193;39;111837;-83
2021/06/28 03:35:06;;;;;;;;;6.00;6.00;;;;;;;;3520335;39;113617;-83
2021/06/28 03:37:33;;;;;;;;;7.00;6.75;;;;;;;;3518825;39;114139;-85
2021/06/28 03:40:00;;;;;;;;;7.25;6.50;;;;;;;;3519725;39;113522;-84
2021/06/28 03:42:28;;;;;;;;;7.00;7.00;;;;;;;;3519439;39;113594;-83
2021/06/28 03:44:55;;;;;;;;;7.75;7.00;;;;;;;;3518900;39;114648;-81
2021/06/28 03:47:22;;;;;;;;;10.00;7.00;;;;;;;;3520080;39;111973;-79
2021/06/28 03:49:48;;;;;;;;;7.50;7.00;;;;;;;;3518820;39;113265;-81
2021/06/28 03:52:15;;;;;;;;;8.00;7.00;;;;;;;;3522165;39;112181;-80
2021/06/28 03:54:42;;;;;;;;;10.00;6.75;;;;;;;;3518446;39;113702;-79
2021/06/28 03:57:08;;;;;;;;;8.25;8.25;;;;;;;;3519789;39;114142;-81
2021/06/28 03:59:36;;;;;;;;;6.25;6.25;;;;;;;;3518974;39;112031;-80
2021/06/28 04:02:03;;;;;;;;;7.00;7.00;;;;;;;;3519640;39;113302;-80
2021/06/28 04:04:30;;;;;;;;;7.00;7.00;;;;;;;;3518102;39;113854;-79
2021/06/28 04:06:57;;;;;;;;;8.50;6.50;;;;;;;;3519239;39;111916;-79
2021/06/28 04:09:23;;;;;;;;;6.00;6.00;;;;;;;;3519636;39;113688;-79
2021/06/28 04:11:50;;;;;;;;;8.00;7.00;;;;;;;;3520865;39;114066;-80
2021/06/28 04:14:17;;;;;;;;;8.25;7.25;;;;;;;;3519714;39;112498;-81
2021/06/28 04:16:45;;;;;;;;;8.00;7.75;;;;;;;;3516421;39;112979;-80
2021/06/28 04:19:11;;;;;;;;;7.75;7.75;;;;;;;;3518411;39;112486;-80
2021/06/28 04:21:38;;;;;;;;;7.25;7.00;;;;;;;;3520210;39;113349;-80
2021/06/28 04:24:05;;;;;;;;;8.00;7.00;;;;;;;;3518112;39;114179;-80
2021/06/28 04:26:32;;;;;;;;;8.25;8.25;;;;;;;;3516169;39;112066;-80
2021/06/28 04:28:59;;;;;;;;;7.75;7.50;;;;;;;;3518952;39;113465;-79
2021/06/28 04:31:28;;;;;;;;;7.00;7.00;;;;;;;;3518692;39;113937;-82
2021/06/28 04:33:56;;;;;;;;;7.50;7.50;;;;;;;;3522112;39;112941;-81
2021/06/28 04:36:22;;;;;;;;;8.75;8.00;;;;;;;;3518573;39;113909;-82
2021/06/28 04:38:49;;;;;;;;;9.00;9.00;;;;;;;;3519578;39;111909;-82
2021/06/28 04:41:15;;;;;;;;;8.25;7.00;;;;;;;;3518917;39;113414;-81
2021/06/28 04:43:42;;;;;;;;;8.75;7.75;;;;;;;;3519252;39;113881;-79
2021/06/28 04:46:09;;;;;;;;;7.00;5.50;;;;;;;;3520205;39;111928;-80
2021/06/28 04:48:35;;;;;;;;;8.00;7.00;;;;;;;;3518645;39;113386;-79
2021/06/28 04:51:03;;;;;;;;;8.75;8.25;;;;;;;;3519034;39;113891;-79
2021/06/28 04:53:30;;;;;;;;;7.25;7.25;;;;;;;;3518916;39;112255;-79
2021/06/28 04:55:56;;;;;;;;;7.00;7.00;;;;;;;;3521345;39;113730;-80
2021/06/28 04:58:23;;;;;;;;;8.75;8.00;;;;;;;;3519313;39;112270;-80
2021/06/28 05:00:49;;;;;;;;;10.25;8.00;;;;;;;;3518565;39;113215;-79
2021/06/28 05:03:16;;;;;;;;;7.00;7.00;;;;;;;;3519327;39;113906;-79
2021/06/28 05:05:43;;;;;;;;;8.00;7.25;;;;;;;;3518337;39;111924;-82
2021/06/28 05:08:10;;;;;;;;;8.75;8.50;;;;;;;;3518438;39;113587;-81
2021/06/28 05:10:37;;;;;;;;;7.50;7.50;;;;;;;;3520000;39;113980;-83
2021/06/28 05:13:04;;;;;;;;;9.00;7.75;;;;;;;;3519741;39;112486;-80
2021/06/28 05:15:30;;;;;;;;;13.00;12.00;;;;;;;;3518400;39;114064;-80
2021/06/28 05:17:57;;;;;;;;;11.75;11.00;;;;;;;;3521010;39;113928;-80
2021/06/28 05:20:23;;;;;;;;;10.50;9.00;;;;;;;;3521249;39;113723;-80
2021/06/28 05:22:50;;;;;;;;;10.00;10.00;;;;;;;;3518954;39;113944;-82
2021/06/28 05:25:18;;;;;;;;;8.50;8.50;;;;;;;;3518322;39;112019;-78
2021/06/28 05:27:44;;;;;;;;;12.00;11.00;;;;;;;;3517838;39;113305;-81
2021/06/28 05:30:12;;;;;;;;;10.50;8.75;;;;;;;;3519450;39;114172;-79
2021/06/28 05:32:38;;;;;;;;;11.75;9.25;;;;;;;;3518198;39;111782;-80
2021/06/28 05:35:06;;;;;;;;;12.00;10.75;;;;;;;;3519424;39;113999;-81
2021/06/28 05:37:32;;;;;;;;;10.75;10.75;;;;;;;;3518251;39;113841;-78
2021/06/28 05:39:59;;;;;;;;;10.25;10.00;;;;;;;;3521678;39;111839;-79
2021/06/28 05:42:27;;;;;;;;;10.75;10.00;;;;;;;;3518317;39;113964;-84
2021/06/28 05:44:54;;;;;;;;;9.50;9.50;;;;;;;;3518770;39;111875;-82
2021/06/28 09:04:09;;;;;;;;;7.00;7.00;;;;;;;;3576522;39;112810;-77
2021/06/28 09:06:37;;;;;;;;;9.00;9.00;;;;;;;;3565529;39;114429;-75
2021/06/28 09:09:07;;;;;;;;;7.25;7.25;;;;;;;;3567088;39;112097;-74
2021/06/28 09:11:35;;;;;;;;;8.50;7.75;;;;;;;;3566205;39;113685;-74
2021/06/28 09:14:03;;;;;;;;;9.75;9.50;;;;;;;;3566037;39;114021;-75
2021/06/28 09:16:31;;;;;;;;;10.50;10.50;;;;;;;;3539076;39;112010;-74
2021/06/28 09:19:01;;;;;;;;;11.25;9.25;;;;;;;;3553257;39;113370;-75
2021/06/28 09:21:30;;;;;;;;;11.00;8.25;;;;;;;;3555945;39;113886;-74
2021/06/28 09:23:58;;;;;;;;;10.00;10.00;;;;;;;;3558440;39;112046;-74
2021/06/28 09:26:28;;;;;;;;;9.50;7.75;;;;;;;;3555930;39;114588;-74
2021/06/28 09:28:56;;;;;;;;;9.75;9.00;;;;;;;;3556079;39;111723;-74
2021/06/28 09:31:37;;;;;;;;;9.50;9.50;;;;;;;;3556543;39;113180;-74
2021/06/28 09:34:04;;;;;;;;;10.75;9.00;;;;;;;;3555724;39;113955;-75
2021/06/28 09:36:32;;;;;;;;;10.00;10.00;;;;;;;;3556703;39;111877;-73
2021/06/28 09:38:59;;;;;;;;;9.50;9.50;;;;;;;;3555858;39;113077;-74
2021/06/28 09:41:27;;;;;;;;;9.50;9.00;;;;;;;;3555701;39;113879;-74
2021/06/28 09:43:58;;;;;;;;;11.00;10.00;;;;;;;;3556179;39;112217;-74
2021/06/28 09:46:25;;;;;;;;;11.50;10.00;;;;;;;;3558302;39;113269;-74
2021/06/28 09:48:53;;;;;;;;;12.33;10.67;;;;;;;;3556399;39;113839;-74
2021/06/28 09:51:21;;;;;;;;;9.25;9.25;;;;;;;;3555971;39;113324;-74
2021/06/28 09:53:49;;;;;;;;;10.00;8.50;;;;;;;;3552810;39;112958;-74
2021/06/28 09:56:29;;;;;;;;;12.00;10.00;;;;;;;;3555468;39;112061;-74
2021/06/28 09:58:55;;;;;;;;;16.00;11.00;;;;;;;;3555918;39;113251;-75
2021/06/28 10:01:23;;;;;;;;;10.67;10.00;;;;;;;;3555387;39;113704;-73
2021/06/28 10:03:53;;;;;;;;;25.00;24.67;;;;;;;;3556548;39;111996;-74
2021/06/28 10:06:28;;;;;;;;;12.33;12.33;;;;;;;;3554601;39;113203;-74
2021/06/28 10:09:03;;;;;;;;;20.00;19.00;;;;;;;;3558018;39;113948;-74
2021/06/28 10:11:30;;;;;;;;;9.33;9.33;;;;;;;;3556452;39;113235;-73
2021/06/28 10:13:57;;;;;;;;;7.67;7.67;;;;;;;;3553178;39;114034;-73
2021/06/28 10:17:38;;;;;;;;;9.33;9.33;;;;;;;;3572433;39;111944;-74
2021/06/28 10:20:06;;;;;;;;;7.00;7.00;;;;;;;;3566662;39;114125;-75
2021/06/28 10:22:32;;;;;;;;;0.00;0.00;;;;;;;;3566563;39;111926;-75
2021/06/28 10:25:00;;;;;;;;;9.00;7.67;;;;;;;;3566376;39;113316;-76
2021/06/28 10:27:27;;;;;;;;;10.33;10.00;;;;;;;;3565645;39;114276;-74
2021/06/28 10:29:54;;;;;;;;;8.67;8.67;;;;;;;;3565605;39;112051;-74
2021/06/28 10:32:21;;;;;;;;;10.00;9.00;;;;;;;;3565795;39;112755;-75
2021/06/28 10:34:52;;;;;;;;;9.33;9.33;;;;;;;;3566230;39;115927;-73
2021/06/28 10:37:35;;;;;;;;;7.00;7.00;;;;;;;;3567281;39;111898;-75
2021/06/28 10:40:02;;;;;;;;;6.33;6.33;;;;;;;;3565190;39;114051;-75
2021/06/28 10:42:30;;;;;;;;;7.00;7.00;;;;;;;;3566257;39;112121;-75
2021/06/28 10:44:56;;;;;;;;;8.00;7.00;;;;;;;;3566216;39;112983;-76
2021/06/28 10:47:23;;;;;;;;;8.00;7.00;;;;;;;;3565571;39;115367;-75
2021/06/28 10:49:52;;;;;;;;;5.67;5.67;;;;;;;;3566947;39;112058;-75
2021/06/28 10:52:33;;;;;;;;;5.67;4.33;;;;;;;;3566045;39;113471;-76
2021/06/28 10:55:01;;;;;;;;;5.67;5.67;;;;;;;;3565396;39;113879;-78
2021/06/28 10:57:38;;;;;;;;;7.67;7.33;;;;;;;;3566363;39;112854;-77
2021/06/28 11:00:05;;;;;;;;;6.00;6.00;;;;;;;;3567990;39;113191;-77
2021/06/28 11:02:36;;;;;;;;;6.33;6.33;;;;;;;;3566864;39;111758;-75
2021/06/28 11:05:05;;;;;;;;;6.67;6.67;;;;;;;;3565635;39;113617;-76
2021/06/28 11:07:41;;;;;;;;;6.00;6.00;;;;;;;;3566195;39;113842;-77
2021/06/28 11:10:12;;;;;;;;;7.00;7.00;;;;;;;;3565404;39;112255;-74
2021/06/28 11:12:39;;;;;;;;;21.67;21.67;;;;;;;;3565490;39;113179;-70
2021/06/28 11:15:07;;;;;;;;;21.67;21.33;;;;;;;;3566334;39;114014;-76
2021/06/28 11:17:41;;;;;;;;;24.33;24.33;;;;;;;;3565599;39;113273;-69
2021/06/28 11:20:19;;;;;;;;;19.00;19.00;;;;;;;;3567143;39;113306;-70
2021/06/28 11:22:51;;;;;;;;;24.00;22.33;;;;;;;;3564945;39;114002;-69
2021/06/28 11:25:19;;;;;;;;;16.67;15.67;;;;;;;;3565169;39;113433;-70
2021/06/28 11:27:47;;;;;;;;;16.00;14.00;;;;;;;;3559158;39;114087;-69
2021/06/28 11:30:19;;;;;;;;;14.00;13.00;;;;;;;;3558633;39;112481;-70
2021/06/28 11:32:55;;;;;;;;;17.33;16.00;;;;;;;;3557222;39;113281;-69
2021/06/28 11:35:35;;;;;;;;;18.67;18.67;;;;;;;;3558727;39;113791;-69
2021/06/28 11:38:19;;;;;;;;;12.33;11.00;;;;;;;;3559706;39;111880;-69
2021/06/28 11:40:49;;;;;;;;;13.67;12.67;;;;;;;;3558728;39;112341;-70
2021/06/28 11:43:33;;;;;;;;;13.67;13.67;;;;;;;;3559840;39;114202;-69
2021/06/28 11:45:59;;;;;;;;;19.00;18.33;;;;;;;;3562484;39;112301;-69
2021/06/28 11:48:33;;;;;;;;;10.33;10.33;;;;;;;;3558942;39;114386;-69
2021/06/28 11:51:02;;;;;;;;;15.00;15.00;;;;;;;;3559491;39;111966;-69
2021/06/28 11:53:29;;;;;;;;;17.00;16.33;;;;;;;;3559226;39;113173;-69
2021/06/28 11:55:56;;;;;;;;;16.67;14.67;;;;;;;;3558615;39;113889;-69
2021/06/28 11:58:25;;;;;;;;;13.00;11.33;;;;;;;;3559546;39;112293;-69
2021/06/28 12:01:13;;;;;;;;;12.00;12.00;;;;;;;;3559033;39;113222;-69
2021/06/28 12:03:40;;;;;;;;;7.67;7.67;;;;;;;;3556980;39;113882;-70
2021/06/28 12:06:09;;;;;;;;;12.00;10.33;;;;;;;;3558619;39;111932;-69
2021/06/28 12:08:36;;;;;;;;;11.33;11.33;;;;;;;;3562167;39;113764;-69
2021/06/28 12:11:02;;;;;;;;;11.67;11.67;;;;;;;;3558924;39;111833;-68
2021/06/28 12:13:33;;;;;;;;;13.00;13.00;;;;;;;;3559340;39;113317;-69
2021/06/28 12:16:12;;;;;;;;;12.33;12.00;;;;;;;;3558376;39;113960;-69
2021/06/28 12:18:39;;;;;;;;;12.33;12.33;;;;;;;;3558194;39;111858;-69
2021/06/28 12:21:05;;;;;;;;;10.00;9.00;;;;;;;;3559831;39;113542;-68
2021/06/28 12:23:33;;;;;;;;;5.33;5.33;;;;;;;;3558249;39;114197;-71
2021/06/28 12:26:08;;;;;;;;;5.00;3.00;;;;;;;;3559539;39;112226;-73
2021/06/28 12:28:34;;;;;;;;;3.00;3.00;;;;;;;;3560194;39;113160;-74
2021/06/28 12:31:01;;;;;;;;;4.00;4.00;;;;;;;;3560868;39;112039;-73
2021/06/28 12:33:28;;;;;;;;;3.00;3.00;;;;;;;;3555804;39;112698;-74
2021/06/28 12:35:58;;;;;;;;;5.00;3.33;;;;;;;;3558607;39;113940;-74
2021/06/28 12:38:24;;;;;;;;;5.33;4.67;;;;;;;;3558816;39;111704;-74
2021/06/28 12:40:52;;;;;;;;;4.00;4.00;;;;;;;;3558994;39;113385;-74
2021/06/28 12:43:20;;;;;;;;;4.00;4.00;;;;;;;;3558053;39;113910;-73
2021/06/28 12:45:47;;;;;;;;;10.00;10.00;;;;;;;;3559274;39;111843;-70
2021/06/28 12:48:15;;;;;;;;;4.00;4.00;;;;;;;;3562488;39;113210;-72
2021/06/28 12:50:42;;;;;;;;;15.00;15.00;;;;;;;;3560259;39;113767;-72
2021/06/28 12:53:15;;;;;;;;;13.00;13.00;;;;;;;;3557989;39;113048;-73
2021/06/28 12:55:42;;;;;;;;;15.67;15.33;;;;;;;;3561179;39;114025;-74
2021/06/28 12:58:11;;;;;;;;;9.00;8.00;;;;;;;;3559837;39;111996;-74
2021/06/28 13:00:38;;;;;;;;;14.00;13.00;;;;;;;;3558140;39;113115;-73
2021/06/28 13:03:07;;;;;;;;;11.67;10.33;;;;;;;;3559355;39;113968;-72
2021/06/28 13:05:35;;;;;;;;;9.00;9.00;;;;;;;;3558637;39;111916;-70
2021/06/28 13:08:15;;;;;;;;;13.00;10.50;;;;;;;;3559369;39;113224;-71
2021/06/28 13:10:42;;;;;;;;;9.67;9.67;;;;;;;;3557583;39;113908;-69
2021/06/28 13:13:21;;;;;;;;;12.67;11.00;;;;;;;;3560846;39;112874;-69
2021/06/28 13:16:23;;;;;;;;;10.00;10.00;;;;;;;;3558006;39;113926;-70
2021/06/28 13:19:05;;;;;;;;;6.33;6.00;;;;;;;;3558543;39;111787;-78
2021/06/28 13:21:32;;;;;;;;;6.33;6.33;;;;;;;;3556644;39;112375;-76
2021/06/28 13:23:59;;;;;;;;;5.00;5.00;;;;;;;;3558823;39;114027;-76
2021/06/28 13:26:27;;;;;;;;;7.00;6.00;;;;;;;;3559074;39;112334;-79
2021/06/28 13:28:56;;;;;;;;;5.67;4.00;;;;;;;;3559309;39;113132;-76
2021/06/28 13:31:23;;;;;;;;;6.00;5.33;;;;;;;;3558625;39;114812;-75
2021/06/28 13:34:03;;;;;;;;;6.33;6.33;;;;;;;;3558807;39;111852;-76
2021/06/28 13:36:30;;;;;;;;;7.00;5.33;;;;;;;;3560769;39;113503;-77
2021/06/28 13:38:57;;;;;;;;;4.00;4.00;;;;;;;;3559033;39;112477;-77
2021/06/28 13:41:23;;;;;;;;;5.33;4.67;;;;;;;;3561575;39;113355;-75
2021/06/28 13:44:05;;;;;;;;;7.00;6.00;;;;;;;;3559030;39;113867;-78
2021/06/28 13:46:35;;;;;;;;;6.00;6.00;;;;;;;;3558487;39;111949;-79
2021/06/28 13:49:14;;;;;;;;;8.33;6.00;;;;;;;;3559424;39;113302;-78
2021/06/28 13:51:41;;;;;;;;;5.67;4.00;;;;;;;;3556889;39;113834;-78
2021/06/28 13:54:07;;;;;;;;;5.33;5.33;;;;;;;;3559752;39;111931;-77
2021/06/28 13:56:34;;;;;;;;;6.00;5.00;;;;;;;;3557706;39;113243;-76
2021/06/28 13:59:01;;;;;;;;;5.00;5.00;;;;;;;;3561199;39;113941;-77
2021/06/28 14:01:27;;;;;;;;;5.00;5.00;;;;;;;;3558551;39;113488;-76
2021/06/28 14:03:55;;;;;;;;;7.00;7.00;;;;;;;;3558079;39;113839;-77
2021/06/28 14:06:22;;;;;;;;;7.33;6.67;;;;;;;;3559072;39;111758;-77
2021/06/28 14:08:49;;;;;;;;;7.00;6.00;;;;;;;;3558086;39;113280;-76
2021/06/28 14:11:15;;;;;;;;;5.00;5.00;;;;;;;;3554141;39;114085;-75
2021/06/28 14:13:42;;;;;;;;;6.33;6.00;;;;;;;;3559250;39;111844;-77
2021/06/28 14:16:08;;;;;;;;;8.00;8.00;;;;;;;;3558850;39;113215;-79
2021/06/28 14:18:35;;;;;;;;;6.00;6.00;;;;;;;;3556545;39;113890;-79
2021/06/28 14:21:03;;;;;;;;;6.00;6.00;;;;;;;;3560985;39;111919;-80
2021/06/28 14:23:30;;;;;;;;;9.00;8.33;;;;;;;;3558063;39;114472;-79
2021/06/28 14:25:56;;;;;;;;;9.67;6.67;;;;;;;;3556515;39;111968;-79
2021/06/28 14:28:23;;;;;;;;;10.00;7.67;;;;;;;;3558342;39;113531;-77
2021/06/28 14:30:49;;;;;;;;;7.00;7.00;;;;;;;;3558472;39;114064;-76
2021/06/28 14:33:16;;;;;;;;;3.00;1.33;;;;;;;;3532171;39;114185;-76
2021/06/28 14:35:43;;;;;;;;;8.67;6.00;;;;;;;;3564487;39;113366;-76
2021/06/28 14:38:11;;;;;;;;;5.67;5.00;;;;;;;;3559140;39;113941;-76
2021/06/28 14:40:37;;;;;;;;;7.00;6.00;;;;;;;;3560127;39;111881;-76
2021/06/28 14:43:04;;;;;;;;;7.00;6.67;;;;;;;;3558791;39;114334;-79
2021/06/28 14:45:31;;;;;;;;;7.00;5.00;;;;;;;;3557929;39;112050;-80
2021/06/28 14:47:57;;;;;;;;;7.00;7.00;;;;;;;;3558465;39;114277;-82
2021/06/28 14:50:24;;;;;;;;;6.67;6.00;;;;;;;;3558376;39;113797;-81
2021/06/28 14:52:50;;;;;;;;;10.33;9.33;;;;;;;;3557892;39;112131;-81
2021/06/28 14:55:18;;;;;;;;;6.67;5.33;;;;;;;;3559317;39;113499;-81
2021/06/28 14:57:45;;;;;;;;;8.67;8.67;;;;;;;;3557585;39;113775;-81
2021/06/28 15:00:12;;;;;;;;;7.33;7.00;;;;;;;;3560180;39;112197;-77
2021/06/28 15:02:39;;;;;;;;;8.67;6.00;;;;;;;;3560360;39;113457;-81
2021/06/28 15:05:06;;;;;;;;;0.00;0.00;;;;;;;;3561085;39;112312;-80
2021/06/28 15:07:32;;;;;;;;;8.33;6.33;;;;;;;;3559170;39;113197;-82
2021/06/28 15:10:00;;;;;;;;;7.00;6.00;;;;;;;;3561195;39;113903;-80
2021/06/28 15:12:28;;;;;;;;;7.00;6.67;;;;;;;;3558679;39;112104;-75
2021/06/28 15:14:55;;;;;;;;;8.00;6.00;;;;;;;;3559361;39;113280;-74
2021/06/28 15:17:22;;;;;;;;;6.00;6.00;;;;;;;;3559569;39;113887;-74
2021/06/28 15:19:48;;;;;;;;;9.67;7.00;;;;;;;;3556472;39;112874;-77
2021/06/28 15:22:15;;;;;;;;;8.33;7.00;;;;;;;;3558954;39;113249;-75
2021/06/28 15:24:42;;;;;;;;;6.67;5.00;;;;;;;;3561034;39;113969;-80
2021/06/28 15:27:09;;;;;;;;;7.00;6.33;;;;;;;;3558735;39;113639;-80
2021/06/28 15:29:37;;;;;;;;;8.00;6.00;;;;;;;;3559917;39;113657;-80
2021/06/28 15:32:04;;;;;;;;;8.00;6.33;;;;;;;;3557882;39;112020;-80
2021/06/28 15:34:31;;;;;;;;;8.67;7.00;;;;;;;;3559256;39;113263;-81
2021/06/28 15:36:57;;;;;;;;;20.00;16.00;;;;;;;;3558765;39;113990;-80
2021/06/28 15:39:24;;;;;;;;;15.33;15.00;;;;;;;;3560031;39;111703;-83
2021/06/28 15:41:51;;;;;;;;;12.33;10.67;;;;;;;;3560209;39;113304;-83
2021/06/28 15:44:17;;;;;;;;;14.67;13.00;;;;;;;;3559537;39;114168;-83
2021/06/28 15:46:46;;;;;;;;;13.00;11.33;;;;;;;;3561291;39;111855;-80
2021/06/28 15:49:14;;;;;;;;;16.67;15.67;;;;;;;;3557977;39;114026;-84
2021/06/28 15:51:40;;;;;;;;;13.00;13.00;;;;;;;;3558440;39;112239;-79
2021/06/28 15:54:08;;;;;;;;;16.67;15.00;;;;;;;;3560422;39;113295;-82
2021/06/28 15:56:34;;;;;;;;;12.67;11.67;;;;;;;;3558318;39;113896;-82
2021/06/28 15:59:02;;;;;;;;;14.67;11.00;;;;;;;;3559716;39;112159;-82
2021/06/28 16:01:30;;;;;;;;;11.67;11.67;;;;;;;;3558219;39;113739;-81
2021/06/28 16:03:59;;;;;;;;;12.67;12.67;;;;;;;;3559165;39;113952;-80
2021/06/28 16:06:25;;;;;;;;;13.00;12.33;;;;;;;;3559616;39;111818;-85
2021/06/28 16:08:52;;;;;;;;;12.67;12.33;;;;;;;;3561658;39;113273;-85
2021/06/28 16:11:18;;;;;;;;;12.67;12.67;;;;;;;;3559702;39;111964;-85
2021/06/28 16:13:45;;;;;;;;;12.33;12.33;;;;;;;;3558920;39;113673;-86
2021/06/28 16:16:12;;;;;;;;;12.33;12.33;;;;;;;;3560695;39;113860;-86
2021/06/28 16:18:38;;;;;;;;;13.67;11.67;;;;;;;;3559825;39;111905;-83
2021/06/28 16:21:07;;;;;;;;;13.33;12.67;;;;;;;;3563285;39;113399;-83
2021/06/28 16:23:33;;;;;;;;;11.00;11.00;;;;;;;;3563347;39;113957;-85
2021/06/28 16:26:00;;;;;;;;;11.00;11.00;;;;;;;;3567996;39;111879;-85
2021/06/28 16:28:26;;;;;;;;;11.33;11.33;;;;;;;;3560952;39;112321;-85
2021/06/28 16:30:53;;;;;;;;;10.33;9.67;;;;;;;;3564423;39;114213;-86
2021/06/28 16:33:19;;;;;;;;;11.33;11.33;;;;;;;;3559412;39;113211;-84
2021/06/28 16:35:46;;;;;;;;;10.67;10.67;;;;;;;;3558464;39;114168;-80
2021/06/28 16:38:14;;;;;;;;;9.33;9.33;;;;;;;;3558868;39;112122;-82
2021/06/28 16:40:41;;;;;;;;;13.00;11.33;;;;;;;;3560319;39;113511;-83
2021/06/28 16:43:08;;;;;;;;;10.67;10.67;;;;;;;;3557950;39;114349;-80
2021/06/28 16:45:35;;;;;;;;;12.67;11.00;;;;;;;;3558752;39;112093;-86
2021/06/28 16:48:02;;;;;;;;;8.00;7.33;;;;;;;;3560246;39;113240;-81
2021/06/28 16:50:29;;;;;;;;;12.67;12.33;;;;;;;;3561414;39;115688;-82
2021/06/28 16:52:55;;;;;;;;;14.00;13.67;;;;;;;;3559786;39;113297;-83
2021/06/28 16:55:23;;;;;;;;;14.33;13.67;;;;;;;;3558636;39;114081;-85
2021/06/28 16:57:50;;;;;;;;;13.00;13.00;;;;;;;;3560416;39;112018;-86
2021/06/28 17:00:17;;;;;;;;;11.67;11.67;;;;;;;;3558725;39;112809;-86
2021/06/28 17:02:44;;;;;;;;;13.67;13.00;;;;;;;;3559481;39;114303;-87
2021/06/28 17:05:11;;;;;;;;;13.00;12.00;;;;;;;;3558317;39;111739;-88
2021/06/28 17:07:37;;;;;;;;;11.00;11.00;;;;;;;;3560120;39;113548;-84
2021/06/28 17:10:05;;;;;;;;;11.33;11.33;;;;;;;;3553581;39;114043;-78
2021/06/28 17:12:33;;;;;;;;;14.33;13.00;;;;;;;;3560902;39;112086;-81
2021/06/28 17:15:00;;;;;;;;;12.67;12.00;;;;;;;;3559120;39;113905;-80
2021/06/28 17:17:26;;;;;;;;;12.00;12.00;;;;;;;;3558946;39;111849;-84
2021/06/28 17:19:53;;;;;;;;;8.33;8.33;;;;;;;;3559280;39;113347;-84
2021/06/28 17:22:19;;;;;;;;;10.00;10.00;;;;;;;;3557191;39;114322;-79
2021/06/28 17:24:46;;;;;;;;;9.33;9.33;;;;;;;;3558661;39;112971;-83
2021/06/28 17:27:13;;;;;;;;;16.67;15.67;;;;;;;;3559609;39;113256;-76
2021/06/28 17:29:41;;;;;;;;;20.00;19.67;;;;;;;;3557808;39;114036;-76
2021/06/28 17:32:08;;;;;;;;;13.00;12.67;;;;;;;;3559914;39;112264;-75
2021/06/28 17:34:34;;;;;;;;;21.00;18.00;;;;;;;;3560291;39;113347;-74
2021/06/28 17:37:01;;;;;;;;;15.33;15.00;;;;;;;;3559258;39;112021;-76
2021/06/28 17:39:27;;;;;;;;;21.00;19.00;;;;;;;;3558606;39;114438;-75
2021/06/28 17:41:54;;;;;;;;;23.00;21.67;;;;;;;;3558510;39;114972;-75
2021/06/28 17:44:20;;;;;;;;;24.67;23.00;;;;;;;;3559052;39;111790;-75
2021/06/28 17:46:48;;;;;;;;;25.33;23.33;;;;;;;;3559041;39;114331;-76
2021/06/28 17:49:15;;;;;;;;;23.67;22.33;;;;;;;;3558628;39;114224;-74
2021/06/28 17:51:41;;;;;;;;;11.67;10.67;;;;;;;;3558129;39;111789;-75
2021/06/28 17:54:08;;;;;;;;;16.67;15.67;;;;;;;;3559767;39;114307;-75
2021/06/28 17:56:34;;;;;;;;;7.00;6.00;;;;;;;;3561824;39;114157;-72
2021/06/28 17:59:01;;;;;;;;;22.33;21.00;;;;;;;;3559247;39;113284;-72
2021/06/28 18:01:28;;;;;;;;;16.33;14.67;;;;;;;;3558676;39;113873;-72
2021/06/28 18:03:56;;;;;;;;;24.67;20.00;;;;;;;;3558565;39;112125;-72
2021/06/28 18:06:23;;;;;;;;;7.33;7.33;;;;;;;;3558980;39;113248;-72
2021/06/28 18:08:51;;;;;;;;;7.00;5.33;;;;;;;;3558303;39;113858;-72
2021/06/28 18:11:18;;;;;;;;;8.00;6.67;;;;;;;;3558334;39;111885;-73
2021/06/28 18:13:45;;;;;;;;;18.67;18.67;;;;;;;;3559292;39;113205;-74
2021/06/28 18:16:12;;;;;;;;;6.00;6.00;;;;;;;;3557179;39;112788;-73
2021/06/28 18:18:41;;;;;;;;;6.33;4.00;;;;;;;;3562057;39;111937;-74
2021/06/28 18:21:10;;;;;;;;;5.67;5.00;;;;;;;;3557311;39;114348;-77
2021/06/28 18:23:37;;;;;;;;;12.00;12.00;;;;;;;;3557523;39;112354;-73
2021/06/28 18:26:03;;;;;;;;;16.33;15.00;;;;;;;;3559243;39;113314;-74
2021/06/28 18:28:31;;;;;;;;;17.33;15.00;;;;;;;;3557265;39;113886;-72
2021/06/28 18:30:58;;;;;;;;;12.33;11.00;;;;;;;;3558836;39;113058;-72
2021/06/28 18:33:24;;;;;;;;;14.00;13.00;;;;;;;;3557993;39;113393;-74
2021/06/28 18:35:53;;;;;;;;;6.00;6.00;;;;;;;;3558202;39;113975;-73
2021/06/28 18:38:21;;;;;;;;;9.00;7.33;;;;;;;;3559085;39;113040;-77
2021/06/28 18:40:53;;;;;;;;;12.67;12.67;;;;;;;;3561902;39;113217;-76
2021/06/28 18:43:19;;;;;;;;;8.00;8.00;;;;;;;;3559675;39;112047;-75
2021/06/28 18:45:47;;;;;;;;;7.00;6.00;;;;;;;;3558801;39;113567;-78
2021/06/28 18:48:14;;;;;;;;;11.33;11.33;;;;;;;;3555419;39;113816;-77
2021/06/28 18:50:42;;;;;;;;;12.00;11.33;;;;;;;;3561090;39;112795;-89
2021/06/28 18:53:09;;;;;;;;;6.00;6.00;;;;;;;;3558580;39;113299;-80
2021/06/28 18:55:37;;;;;;;;;12.67;11.67;;;;;;;;3556781;39;113230;-77
2021/06/28 18:58:04;;;;;;;;;10.00;10.00;;;;;;;;3558538;39;111857;-76
2021/06/28 19:00:31;;;;;;;;;10.67;10.67;;;;;;;;3562321;39;113441;-75
2021/06/28 19:03:02;;;;;;;;;10.33;9.67;;;;;;;;3557322;39;112476;-75
2021/06/28 19:05:29;;;;;;;;;14.33;13.33;;;;;;;;3557336;39;113690;-72
2021/06/28 19:07:56;;;;;;;;;16.33;13.00;;;;;;;;3559106;39;113967;-75
2021/06/28 19:10:22;;;;;;;;;13.67;13.00;;;;;;;;3559365;39;112522;-77
2021/06/28 19:12:50;;;;;;;;;9.33;9.33;;;;;;;;3559361;39;113597;-75
2021/06/28 19:15:17;;;;;;;;;10.67;9.33;;;;;;;;3558924;39;113818;-77
2021/06/28 19:17:43;;;;;;;;;7.00;6.33;;;;;;;;3556978;39;111868;-78
2021/06/28 19:20:11;;;;;;;;;12.33;9.33;;;;;;;;3560302;39;113159;-81
2021/06/28 19:22:37;;;;;;;;;10.33;8.00;;;;;;;;3561426;39;113938;-80
2021/06/28 19:25:04;;;;;;;;;6.00;6.00;;;;;;;;3559651;39;113653;-77